Azamara Quest — 9HOM8 — position and weather

sailwx.info

Track history (hours):
 
Tides and Currents Weather Stations Pressure Air Temp Water Temp Dewpoint Dewpoint Depression Visibility Wind Speed Wind Dir Waves Ship Positions

Azamara Quest

Last reported at 2017-Jul-24 06:32 UTC. Time now 2017-Jul-24 08:28 UTC.
Position N 44°20' E 009°13'.

Length 181 m; draft 5.9 m.

Type: Passenger vessel. MMSI: 256216000.

Date/timePositionNaut miles runAvg speedWind from/ knotsBaromVisibWave heightAir tempDewpointWater temp
2017-Jul-24 06:32N 44°20' E 009°13'0 0.1
2017-Jul-24 06:02N 44°20' E 009°14'0 0.1
2017-Jul-24 05:32N 44°20' E 009°14'0 0.4
2017-Jul-24 05:15N 44°20' E 009°14'3 9.3
2017-Jul-24 04:54N 44°17' E 009°17'4 9.3
2017-Jul-24 04:31N 44°14' E 009°17'3 6.1
2017-Jul-24 04:01N 44°11' E 009°16'3 5.8
2017-Jul-24 03:30N 44°08' E 009°14'3 6.0
2017-Jul-24 03:00N 44°05' E 009°13'3 5.8
2017-Jul-24 02:31N 44°02' E 009°12'4 6.1
2017-Jul-24 01:55N 43°59' E 009°15'3 7.1
2017-Jul-24 01:31N 43°57' E 009°17'4 7.4
2017-Jul-24 01:01N 43°54' E 009°21'4 7.3
2017-Jul-24 00:31N 43°52' E 009°24'4 7.0
2017-Jul-24 00:01N 43°48' E 009°26'4 7.1
2017-Jul-23 23:31N 43°45' E 009°27'3 7.0
2017-Jul-23 23:01N 43°42' E 009°30'4 7.1
2017-Jul-23 22:31N 43°39' E 009°33'4 7.7
2017-Jul-23 22:01N 43°38' E 009°38'4 7.6
2017-Jul-23 21:30N 43°36' E 009°42'4 7.4
2017-Jul-23 21:01N 43°34' E 009°47'4 7.4
2017-Jul-23 20:31N 43°33' E 009°52'4 7.5
2017-Jul-23 20:01N 43°32' E 009°57'4 7.2
2017-Jul-23 19:31N 43°31' E 010°02'3 6.9
2017-Jul-23 19:01N 43°30' E 010°06'3 6.6
2017-Jul-23 18:30N 43°31' E 010°11'4 7.1
2017-Jul-23 18:01N 43°32' E 010°15'2 3.5
2017-Jul-23 17:26N 43°33' E 010°18'0 0.0
2017-Jul-23 16:58N 43°33' E 010°18'0 0.0
2017-Jul-23 16:30N 43°33' E 010°18'0 0.0
2017-Jul-23 16:01N 43°33' E 010°18'0 0.0
2017-Jul-23 15:30N 43°33' E 010°18'0 0.0
2017-Jul-23 15:00N 43°33' E 010°18'0 0.0
2017-Jul-23 14:31N 43°33' E 010°18'0 0.0
2017-Jul-23 13:58N 43°33' E 010°18'0 0.0
2017-Jul-23 13:30N 43°33' E 010°18'0 0.0
2017-Jul-23 13:01N 43°33' E 010°18'0 0.0
2017-Jul-23 12:31N 43°33' E 010°18'0 0.0
2017-Jul-23 11:57N 43°33' E 010°18'0 0.0
2017-Jul-23 11:07N 43°33' E 010°18'0 0.0
2017-Jul-23 10:48N 43°33' E 010°18'0 0.0
2017-Jul-23 10:30N 43°33' E 010°18'0 0.0
2017-Jul-23 10:01N 43°33' E 010°18'0 0.0
2017-Jul-23 09:31N 43°33' E 010°18'0 0.0
2017-Jul-23 09:01N 43°33' E 010°18'0 0.0
2017-Jul-23 08:30N 43°33' E 010°18'0 0.0
2017-Jul-23 07:58N 43°33' E 010°18'0 0.0
2017-Jul-23 07:31N 43°33' E 010°18'0 0.0
2017-Jul-23 06:55N 43°33' E 010°18'0 0.0
2017-Jul-23 06:31N 43°33' E 010°18'0 0.0
2017-Jul-23 06:00N 43°33' E 010°18'0 0.0
2017-Jul-23 05:30N 43°33' E 010°18'0 0.7
2017-Jul-23 05:00N 43°33' E 010°18'4 8.3
2017-Jul-23 04:30N 43°29' E 010°14'3 6.9
2017-Jul-23 04:00N 43°26' E 010°14'4 7.2
2017-Jul-23 03:30N 43°22' E 010°13'4 7.4
2017-Jul-23 03:00N 43°19' E 010°12'4 7.4
2017-Jul-23 02:30N 43°15' E 010°11'4 7.6
2017-Jul-23 02:00N 43°11' E 010°10'4 7.7
2017-Jul-23 01:30N 43°08' E 010°09'4 8.5
2017-Jul-23 01:00N 43°04' E 010°08'510.6
2017-Jul-23 00:30N 42°58' E 010°06'815.1
2017-Jul-23 00:00N 42°51' E 010°03'1613.1
2017-Jul-22 22:45N 42°37' E 010°16'514.7
2017-Jul-22 22:26N 42°34' E 010°20'714.8
2017-Jul-22 21:58N 42°29' E 010°26'156 6.4
2017-Jul-21 21:39N 40°45' E 013°01'517.6
2017-Jul-21 21:21N 40°42' E 013°07'617.6
2017-Jul-21 21:00N 40°39' E 013°15'917.5
2017-Jul-21 20:31N 40°36' E 013°25'917.2
2017-Jul-21 20:01N 40°34' E 013°36'917.2
2017-Jul-21 19:30N 40°31' E 013°47'917.2
2017-Jul-21 19:00N 40°28' E 013°58'917.5
2017-Jul-21 18:30N 40°25' E 014°08'917.1
2017-Jul-21 18:01N 40°28' E 014°19'16 3.3
2017-Jul-21 13:05N 40°38' E 014°36'6 0.7
2017-Jul-21 04:24N 40°31' E 014°37'514.2
2017-Jul-21 04:00N 40°26' E 014°39'6116.3
2017-Jul-21 00:16N 39°26' E 014°55'517.0
2017-Jul-20 23:57N 39°21' E 014°57'817.1
2017-Jul-20 23:29N 39°13' E 014°60'1817.2
2017-Jul-20 22:25N 38°56' E 015°07'815.7
2017-Jul-20 21:54N 38°48' E 015°10'410.7
2017-Jul-20 21:30N 38°44' E 015°12'815.6
2017-Jul-20 20:59N 38°38' E 015°18'715.4
2017-Jul-20 20:30N 38°33' E 015°25'815.9
2017-Jul-20 20:00N 38°27' E 015°32'816.8
2017-Jul-20 19:30N 38°21' E 015°39'611.2
2017-Jul-20 18:58N 38°15' E 015°39'714.2
2017-Jul-20 18:30N 38°08' E 015°36'27 2.3
2017-Jul-20 06:33N 37°42' E 015°31'113.7
2017-Jul-20 06:30N 37°41' E 015°32'1914.4
2017-Jul-20 05:13N 37°39' E 015°55'415.4
2017-Jul-20 04:59N 37°39' E 015°60'6414.8
2017-Jul-20 00:40N 38°06' E 017°13'514.5
2017-Jul-20 00:19N 38°08' E 017°19'814.7
2017-Jul-19 23:47N 38°12' E 017°27'2714.7
2017-Jul-19 21:55N 38°25' E 017°58'1814.5
2017-Jul-19 20:41N 38°33' E 018°19'314.4
2017-Jul-19 20:30N 38°35' E 018°22'2814.5
2017-Jul-19 18:33N 38°48' E 018°53'114.5
2017-Jul-19 18:30N 38°48' E 018°54'714.7
2017-Jul-19 18:00N 38°51' E 019°03'367 7.3
2017-Jul-17 15:21N 43°52' E 014°20'618.3
2017-Jul-17 15:01N 43°56' E 014°14'917.9
2017-Jul-17 14:29N 44°03' E 014°05'917.6
2017-Jul-17 14:00N 44°10' E 013°58'1517.7
2017-Jul-17 13:11N 44°22' E 013°47'617.7
2017-Jul-17 12:52N 44°27' E 013°43'617.8
2017-Jul-17 12:31N 44°32' E 013°38'917.3
2017-Jul-17 12:00N 44°39' E 013°30'917.6
2017-Jul-17 11:30N 44°46' E 013°23'917.5
2017-Jul-17 11:01N 44°54' E 013°17'917.7
2017-Jul-17 10:30N 44°55' E 013°04'917.4
2017-Jul-17 10:00N 44°56' E 012°52'917.2
2017-Jul-17 09:30N 45°03' E 012°44'817.1
2017-Jul-17 09:01N 45°09' E 012°36'815.5
2017-Jul-17 08:31N 45°16' E 012°30'816.6
2017-Jul-17 08:01N 45°24' E 012°29'5 9.1
2017-Jul-17 07:30N 45°25' E 012°22'3 5.1
2017-Jul-17 07:00N 45°26' E 012°19'0 0.0
2017-Jul-17 06:28N 45°26' E 012°19'0 0.0
2017-Jul-17 05:58N 45°26' E 012°19'0 0.0
2017-Jul-17 05:28N 45°26' E 012°19'0 0.0
2017-Jul-17 04:58N 45°26' E 012°19'0 0.0
2017-Jul-17 04:28N 45°26' E 012°19'0 0.0
2017-Jul-17 03:55N 45°26' E 012°19'0 0.0
2017-Jul-17 03:28N 45°26' E 012°19'0 0.0
2017-Jul-17 02:58N 45°26' E 012°19'0 0.0
2017-Jul-17 02:28N 45°26' E 012°19'0 0.0
2017-Jul-17 01:58N 45°26' E 012°19'0 0.0
2017-Jul-17 01:28N 45°26' E 012°19'0 0.0
2017-Jul-17 00:55N 45°26' E 012°19'0 0.0
2017-Jul-17 00:28N 45°26' E 012°19'0 0.0
2017-Jul-16 23:58N 45°26' E 012°19'0 0.0
2017-Jul-16 23:28N 45°26' E 012°19'0 0.0
2017-Jul-16 22:58N 45°26' E 012°19'0 0.0
2017-Jul-16 22:28N 45°26' E 012°19'0 0.0
2017-Jul-16 21:58N 45°26' E 012°19'0 0.0
2017-Jul-16 21:28N 45°26' E 012°19'0 0.0
2017-Jul-16 20:58N 45°26' E 012°19'0 0.0
2017-Jul-16 20:28N 45°26' E 012°19'0 0.0
2017-Jul-16 19:58N 45°26' E 012°19'0 0.0
2017-Jul-16 19:25N 45°26' E 012°19'0 0.0
2017-Jul-16 18:58N 45°26' E 012°19'0 0.0
2017-Jul-16 18:28N 45°26' E 012°19'0 0.0
2017-Jul-16 17:58N 45°26' E 012°19'0 0.0
2017-Jul-16 17:25N 45°26' E 012°19'0 0.0
2017-Jul-16 16:58N 45°26' E 012°19'0 0.0
2017-Jul-16 16:28N 45°26' E 012°19'0 0.0
2017-Jul-16 15:58N 45°26' E 012°19'0 0.0
2017-Jul-16 15:28N 45°26' E 012°19'0 0.0
2017-Jul-16 14:58N 45°26' E 012°19'0 0.0
2017-Jul-16 14:28N 45°26' E 012°19'0 0.0
2017-Jul-16 13:58N 45°26' E 012°19'0 0.0
2017-Jul-16 13:28N 45°26' E 012°19'0 0.0
2017-Jul-16 12:57N 45°26' E 012°19'0 0.0
2017-Jul-16 12:27N 45°26' E 012°19'0 0.0
2017-Jul-16 11:57N 45°26' E 012°19'0 0.0
2017-Jul-16 11:27N 45°26' E 012°19'0 0.0
2017-Jul-16 10:57N 45°26' E 012°19'0 0.0
2017-Jul-16 10:27N 45°26' E 012°19'0 0.0
2017-Jul-16 09:57N 45°26' E 012°19'0 0.0
2017-Jul-16 09:27N 45°26' E 012°19'0 0.0
2017-Jul-16 08:57N 45°26' E 012°19'0 0.0
2017-Jul-16 08:27N 45°26' E 012°19'0 0.0
2017-Jul-16 07:57N 45°26' E 012°19'0 0.0
2017-Jul-16 07:27N 45°26' E 012°19'0 0.0
2017-Jul-16 06:57N 45°26' E 012°19'0 0.0
2017-Jul-16 06:27N 45°26' E 012°19'0 0.0
2017-Jul-16 05:57N 45°26' E 012°19'0 0.0
2017-Jul-16 05:27N 45°26' E 012°19'0 0.0
2017-Jul-16 04:57N 45°26' E 012°19'0 0.0
2017-Jul-16 04:27N 45°26' E 012°19'0 0.0
2017-Jul-16 03:57N 45°26' E 012°19'0 0.0
2017-Jul-16 03:27N 45°26' E 012°19'0 0.0
2017-Jul-16 02:57N 45°26' E 012°19'0 0.0
2017-Jul-16 02:27N 45°26' E 012°19'0 0.0
2017-Jul-16 01:57N 45°26' E 012°19'0 0.0
2017-Jul-16 01:27N 45°26' E 012°19'0 0.0
2017-Jul-16 00:57N 45°26' E 012°19'0 0.0
2017-Jul-16 00:27N 45°26' E 012°19'0 0.0
2017-Jul-15 23:57N 45°26' E 012°19'0 0.0
2017-Jul-15 23:27N 45°26' E 012°19'0 0.0
2017-Jul-15 22:57N 45°26' E 012°19'0 0.0
2017-Jul-15 22:27N 45°26' E 012°19'0 0.0
2017-Jul-15 21:57N 45°26' E 012°19'0 0.0
2017-Jul-15 21:27N 45°26' E 012°19'0 0.0
2017-Jul-15 20:57N 45°26' E 012°19'0 0.0
2017-Jul-15 20:27N 45°26' E 012°19'0 0.0
2017-Jul-15 19:57N 45°26' E 012°19'0 0.0
2017-Jul-15 19:27N 45°26' E 012°19'0 0.0
2017-Jul-15 18:57N 45°26' E 012°19'0 0.0
2017-Jul-15 18:27N 45°26' E 012°19'0 0.0
2017-Jul-15 17:57N 45°26' E 012°19'0 0.0
2017-Jul-15 17:27N 45°26' E 012°19'0 0.0
2017-Jul-15 16:57N 45°26' E 012°19'0 0.0
2017-Jul-15 16:27N 45°26' E 012°19'0 0.0
2017-Jul-15 15:57N 45°26' E 012°19'0 0.0
2017-Jul-15 15:27N 45°26' E 012°19'0 0.0
2017-Jul-15 14:57N 45°26' E 012°19'0 0.0
2017-Jul-15 13:57N 45°26' E 012°19'0 0.0
2017-Jul-15 13:27N 45°26' E 012°19'0 0.0
2017-Jul-15 12:57N 45°26' E 012°19'0 0.0
2017-Jul-15 12:27N 45°26' E 012°19'0 0.0
2017-Jul-15 11:57N 45°26' E 012°19'0 0.0
2017-Jul-15 11:27N 45°26' E 012°19'0 0.0
2017-Jul-15 10:57N 45°26' E 012°19'0 0.0
2017-Jul-15 10:27N 45°26' E 012°19'0 0.0
2017-Jul-15 09:57N 45°26' E 012°19'0 0.0
2017-Jul-15 09:27N 45°26' E 012°19'0 0.0
2017-Jul-15 08:57N 45°26' E 012°19'0 0.0
2017-Jul-15 08:27N 45°26' E 012°19'0 0.0
2017-Jul-15 07:57N 45°26' E 012°19'0 0.0
2017-Jul-15 07:27N 45°26' E 012°19'0 0.0
2017-Jul-15 06:57N 45°26' E 012°19'0 0.0
2017-Jul-15 06:27N 45°26' E 012°19'0 0.0
2017-Jul-15 05:57N 45°26' E 012°19'0 0.0
2017-Jul-15 05:27N 45°26' E 012°19'0 0.0
2017-Jul-15 04:57N 45°26' E 012°19'0 0.0
2017-Jul-15 04:27N 45°26' E 012°19'0 0.0
2017-Jul-15 03:57N 45°26' E 012°19'0 0.0
2017-Jul-15 03:27N 45°26' E 012°19'0 0.0
2017-Jul-15 02:57N 45°26' E 012°19'0 0.0
2017-Jul-15 02:27N 45°26' E 012°19'0 0.0
2017-Jul-15 01:57N 45°26' E 012°19'0 0.0
2017-Jul-15 01:27N 45°26' E 012°19'0 0.0
2017-Jul-15 00:57N 45°26' E 012°19'0 0.0
2017-Jul-15 00:27N 45°26' E 012°19'0 0.0
2017-Jul-14 23:57N 45°26' E 012°19'0 0.0
2017-Jul-14 23:27N 45°26' E 012°19'0 0.0
2017-Jul-14 22:57N 45°26' E 012°19'0 0.0
2017-Jul-14 22:27N 45°26' E 012°19'0 0.0
2017-Jul-14 21:57N 45°26' E 012°19'0 0.0
2017-Jul-14 21:27N 45°26' E 012°19'0 0.0
2017-Jul-14 20:57N 45°26' E 012°19'0 0.0
2017-Jul-14 20:27N 45°26' E 012°19'0 0.0
2017-Jul-14 19:57N 45°26' E 012°19'0 0.0
2017-Jul-14 19:27N 45°26' E 012°19'0 0.0
2017-Jul-14 18:57N 45°26' E 012°19'0 0.0
2017-Jul-14 18:27N 45°26' E 012°19'0 0.0
2017-Jul-14 17:57N 45°26' E 012°19'0 0.0
2017-Jul-14 17:27N 45°26' E 012°19'0 0.0
2017-Jul-14 16:57N 45°26' E 012°19'0 0.0
2017-Jul-14 16:27N 45°26' E 012°19'0 0.0
2017-Jul-14 15:57N 45°26' E 012°19'0 0.0
2017-Jul-14 15:27N 45°26' E 012°19'0 0.0
2017-Jul-14 14:57N 45°26' E 012°19'0 0.0
2017-Jul-14 14:27N 45°26' E 012°19'0 0.0
2017-Jul-14 13:57N 45°26' E 012°19'0 0.0
2017-Jul-14 13:27N 45°26' E 012°19'0 0.0
2017-Jul-14 12:57N 45°26' E 012°19'0 0.0
2017-Jul-14 12:27N 45°26' E 012°19'0 0.0
2017-Jul-14 11:57N 45°26' E 012°19'0 0.0
2017-Jul-14 11:27N 45°26' E 012°19'0 0.0
2017-Jul-14 10:57N 45°26' E 012°19'0 0.0
2017-Jul-14 10:27N 45°26' E 012°19'0 0.0
2017-Jul-14 09:57N 45°26' E 012°19'0 0.0
2017-Jul-14 09:27N 45°26' E 012°19'0 0.0
2017-Jul-14 08:57N 45°26' E 012°19'0 0.0
2017-Jul-14 08:27N 45°26' E 012°19'0 0.0
2017-Jul-14 07:57N 45°26' E 012°19'0 0.0
2017-Jul-14 07:27N 45°26' E 012°19'0 0.0
2017-Jul-14 06:51N 45°26' E 012°19'  
Track history (hours):
 
Tides and Currents Weather Stations Pressure Air Temp Water Temp Dewpoint Dewpoint Depression Visibility Wind Speed Wind Dir Waves Ship Positions

Azamara Quest

Last reported at 2017-Jul-24 06:32 UTC. Time now 2017-Jul-24 08:28 UTC.
Position N 44°20' E 009°13'.

Length 181 m; draft 5.9 m.

Type: Passenger vessel. MMSI: 256216000.

Date/timePositionNaut miles runAvg speedWind from/ knotsBaromVisibWave heightAir tempDewpointWater temp
2017-Jul-24 06:32N 44°20' E 009°13'0 0.1
2017-Jul-24 06:02N 44°20' E 009°14'0 0.1
2017-Jul-24 05:32N 44°20' E 009°14'0 0.4
2017-Jul-24 05:15N 44°20' E 009°14'3 9.3
2017-Jul-24 04:54N 44°17' E 009°17'4 9.3
2017-Jul-24 04:31N 44°14' E 009°17'3 6.1
2017-Jul-24 04:01N 44°11' E 009°16'3 5.8
2017-Jul-24 03:30N 44°08' E 009°14'3 6.0
2017-Jul-24 03:00N 44°05' E 009°13'3 5.8
2017-Jul-24 02:31N 44°02' E 009°12'4 6.1
2017-Jul-24 01:55N 43°59' E 009°15'3 7.1
2017-Jul-24 01:31N 43°57' E 009°17'4 7.4
2017-Jul-24 01:01N 43°54' E 009°21'4 7.3
2017-Jul-24 00:31N 43°52' E 009°24'4 7.0
2017-Jul-24 00:01N 43°48' E 009°26'4 7.1
2017-Jul-23 23:31N 43°45' E 009°27'3 7.0
2017-Jul-23 23:01N 43°42' E 009°30'4 7.1
2017-Jul-23 22:31N 43°39' E 009°33'4 7.7
2017-Jul-23 22:01N 43°38' E 009°38'4 7.6
2017-Jul-23 21:30N 43°36' E 009°42'4 7.4
2017-Jul-23 21:01N 43°34' E 009°47'4 7.4
2017-Jul-23 20:31N 43°33' E 009°52'4 7.5
2017-Jul-23 20:01N 43°32' E 009°57'4 7.2
2017-Jul-23 19:31N 43°31' E 010°02'3 6.9
2017-Jul-23 19:01N 43°30' E 010°06'3 6.6
2017-Jul-23 18:30N 43°31' E 010°11'4 7.1
2017-Jul-23 18:01N 43°32' E 010°15'2 3.5
2017-Jul-23 17:26N 43°33' E 010°18'0 0.0
2017-Jul-23 16:58N 43°33' E 010°18'0 0.0
2017-Jul-23 16:30N 43°33' E 010°18'0 0.0
2017-Jul-23 16:01N 43°33' E 010°18'0 0.0
2017-Jul-23 15:30N 43°33' E 010°18'0 0.0
2017-Jul-23 15:00N 43°33' E 010°18'0 0.0
2017-Jul-23 14:31N 43°33' E 010°18'0 0.0
2017-Jul-23 13:58N 43°33' E 010°18'0 0.0
2017-Jul-23 13:30N 43°33' E 010°18'0 0.0
2017-Jul-23 13:01N 43°33' E 010°18'0 0.0
2017-Jul-23 12:31N 43°33' E 010°18'0 0.0
2017-Jul-23 11:57N 43°33' E 010°18'0 0.0
2017-Jul-23 11:07N 43°33' E 010°18'0 0.0
2017-Jul-23 10:48N 43°33' E 010°18'0 0.0
2017-Jul-23 10:30N 43°33' E 010°18'0 0.0
2017-Jul-23 10:01N 43°33' E 010°18'0 0.0
2017-Jul-23 09:31N 43°33' E 010°18'0 0.0
2017-Jul-23 09:01N 43°33' E 010°18'0 0.0
2017-Jul-23 08:30N 43°33' E 010°18'0 0.0
2017-Jul-23 07:58N 43°33' E 010°18'0 0.0
2017-Jul-23 07:31N 43°33' E 010°18'0 0.0
2017-Jul-23 06:55N 43°33' E 010°18'0 0.0
2017-Jul-23 06:31N 43°33' E 010°18'0 0.0
2017-Jul-23 06:00N 43°33' E 010°18'0 0.0
2017-Jul-23 05:30N 43°33' E 010°18'0 0.7
2017-Jul-23 05:00N 43°33' E 010°18'4 8.3
2017-Jul-23 04:30N 43°29' E 010°14'3 6.9
2017-Jul-23 04:00N 43°26' E 010°14'4 7.2
2017-Jul-23 03:30N 43°22' E 010°13'4 7.4
2017-Jul-23 03:00N 43°19' E 010°12'4 7.4
2017-Jul-23 02:30N 43°15' E 010°11'4 7.6
2017-Jul-23 02:00N 43°11' E 010°10'4 7.7
2017-Jul-23 01:30N 43°08' E 010°09'4 8.5
2017-Jul-23 01:00N 43°04' E 010°08'510.6
2017-Jul-23 00:30N 42°58' E 010°06'815.1
2017-Jul-23 00:00N 42°51' E 010°03'1613.1
2017-Jul-22 22:45N 42°37' E 010°16'514.7
2017-Jul-22 22:26N 42°34' E 010°20'714.8
2017-Jul-22 21:58N 42°29' E 010°26'156 6.4
2017-Jul-21 21:39N 40°45' E 013°01'517.6
2017-Jul-21 21:21N 40°42' E 013°07'617.6
2017-Jul-21 21:00N 40°39' E 013°15'917.5
2017-Jul-21 20:31N 40°36' E 013°25'917.2
2017-Jul-21 20:01N 40°34' E 013°36'917.2
2017-Jul-21 19:30N 40°31' E 013°47'917.2
2017-Jul-21 19:00N 40°28' E 013°58'917.5
2017-Jul-21 18:30N 40°25' E 014°08'917.1
2017-Jul-21 18:01N 40°28' E 014°19'16 3.3
2017-Jul-21 13:05N 40°38' E 014°36'6 0.7
2017-Jul-21 04:24N 40°31' E 014°37'514.2
2017-Jul-21 04:00N 40°26' E 014°39'6116.3
2017-Jul-21 00:16N 39°26' E 014°55'517.0
2017-Jul-20 23:57N 39°21' E 014°57'817.1
2017-Jul-20 23:29N 39°13' E 014°60'1817.2
2017-Jul-20 22:25N 38°56' E 015°07'815.7
2017-Jul-20 21:54N 38°48' E 015°10'410.7
2017-Jul-20 21:30N 38°44' E 015°12'815.6
2017-Jul-20 20:59N 38°38' E 015°18'715.4
2017-Jul-20 20:30N 38°33' E 015°25'815.9
2017-Jul-20 20:00N 38°27' E 015°32'816.8
2017-Jul-20 19:30N 38°21' E 015°39'611.2
2017-Jul-20 18:58N 38°15' E 015°39'714.2
2017-Jul-20 18:30N 38°08' E 015°36'27 2.3
2017-Jul-20 06:33N 37°42' E 015°31'113.7
2017-Jul-20 06:30N 37°41' E 015°32'1914.4
2017-Jul-20 05:13N 37°39' E 015°55'415.4
2017-Jul-20 04:59N 37°39' E 015°60'6414.8
2017-Jul-20 00:40N 38°06' E 017°13'514.5
2017-Jul-20 00:19N 38°08' E 017°19'814.7
2017-Jul-19 23:47N 38°12' E 017°27'2714.7
2017-Jul-19 21:55N 38°25' E 017°58'1814.5
2017-Jul-19 20:41N 38°33' E 018°19'314.4
2017-Jul-19 20:30N 38°35' E 018°22'2814.5
2017-Jul-19 18:33N 38°48' E 018°53'114.5
2017-Jul-19 18:30N 38°48' E 018°54'714.7
2017-Jul-19 18:00N 38°51' E 019°03'367 7.3
2017-Jul-17 15:21N 43°52' E 014°20'618.3
2017-Jul-17 15:01N 43°56' E 014°14'917.9
2017-Jul-17 14:29N 44°03' E 014°05'917.6
2017-Jul-17 14:00N 44°10' E 013°58'1517.7
2017-Jul-17 13:11N 44°22' E 013°47'617.7
2017-Jul-17 12:52N 44°27' E 013°43'617.8
2017-Jul-17 12:31N 44°32' E 013°38'917.3
2017-Jul-17 12:00N 44°39' E 013°30'917.6
2017-Jul-17 11:30N 44°46' E 013°23'917.5
2017-Jul-17 11:01N 44°54' E 013°17'917.7
2017-Jul-17 10:30N 44°55' E 013°04'917.4
2017-Jul-17 10:00N 44°56' E 012°52'917.2
2017-Jul-17 09:30N 45°03' E 012°44'817.1
2017-Jul-17 09:01N 45°09' E 012°36'815.5
2017-Jul-17 08:31N 45°16' E 012°30'816.6
2017-Jul-17 08:01N 45°24' E 012°29'5 9.1
2017-Jul-17 07:30N 45°25' E 012°22'3 5.1
2017-Jul-17 07:00N 45°26' E 012°19'0 0.0
2017-Jul-17 06:28N 45°26' E 012°19'0 0.0
2017-Jul-17 05:58N 45°26' E 012°19'0 0.0
2017-Jul-17 05:28N 45°26' E 012°19'0 0.0
2017-Jul-17 04:58N 45°26' E 012°19'0 0.0
2017-Jul-17 04:28N 45°26' E 012°19'0 0.0
2017-Jul-17 03:55N 45°26' E 012°19'0 0.0
2017-Jul-17 03:28N 45°26' E 012°19'0 0.0
2017-Jul-17 02:58N 45°26' E 012°19'0 0.0
2017-Jul-17 02:28N 45°26' E 012°19'0 0.0
2017-Jul-17 01:58N 45°26' E 012°19'0 0.0
2017-Jul-17 01:28N 45°26' E 012°19'0 0.0
2017-Jul-17 00:55N 45°26' E 012°19'0 0.0
2017-Jul-17 00:28N 45°26' E 012°19'0 0.0
2017-Jul-16 23:58N 45°26' E 012°19'0 0.0
2017-Jul-16 23:28N 45°26' E 012°19'0 0.0
2017-Jul-16 22:58N 45°26' E 012°19'0 0.0
2017-Jul-16 22:28N 45°26' E 012°19'0 0.0
2017-Jul-16 21:58N 45°26' E 012°19'0 0.0
2017-Jul-16 21:28N 45°26' E 012°19'0 0.0
2017-Jul-16 20:58N 45°26' E 012°19'0 0.0
2017-Jul-16 20:28N 45°26' E 012°19'0 0.0
2017-Jul-16 19:58N 45°26' E 012°19'0 0.0
2017-Jul-16 19:25N 45°26' E 012°19'0 0.0
2017-Jul-16 18:58N 45°26' E 012°19'0 0.0
2017-Jul-16 18:28N 45°26' E 012°19'0 0.0
2017-Jul-16 17:58N 45°26' E 012°19'0 0.0
2017-Jul-16 17:25N 45°26' E 012°19'0 0.0
2017-Jul-16 16:58N 45°26' E 012°19'0 0.0
2017-Jul-16 16:28N 45°26' E 012°19'0 0.0
2017-Jul-16 15:58N 45°26' E 012°19'0 0.0
2017-Jul-16 15:28N 45°26' E 012°19'0 0.0
2017-Jul-16 14:58N 45°26' E 012°19'0 0.0
2017-Jul-16 14:28N 45°26' E 012°19'0 0.0
2017-Jul-16 13:58N 45°26' E 012°19'0 0.0
2017-Jul-16 13:28N 45°26' E 012°19'0 0.0
2017-Jul-16 12:57N 45°26' E 012°19'0 0.0
2017-Jul-16 12:27N 45°26' E 012°19'0 0.0
2017-Jul-16 11:57N 45°26' E 012°19'0 0.0
2017-Jul-16 11:27N 45°26' E 012°19'0 0.0
2017-Jul-16 10:57N 45°26' E 012°19'0 0.0
2017-Jul-16 10:27N 45°26' E 012°19'0 0.0
2017-Jul-16 09:57N 45°26' E 012°19'0 0.0
2017-Jul-16 09:27N 45°26' E 012°19'0 0.0
2017-Jul-16 08:57N 45°26' E 012°19'0 0.0
2017-Jul-16 08:27N 45°26' E 012°19'0 0.0
2017-Jul-16 07:57N 45°26' E 012°19'0 0.0
2017-Jul-16 07:27N 45°26' E 012°19'0 0.0
2017-Jul-16 06:57N 45°26' E 012°19'0 0.0
2017-Jul-16 06:27N 45°26' E 012°19'0 0.0
2017-Jul-16 05:57N 45°26' E 012°19'0 0.0
2017-Jul-16 05:27N 45°26' E 012°19'0 0.0
2017-Jul-16 04:57N 45°26' E 012°19'0 0.0
2017-Jul-16 04:27N 45°26' E 012°19'0 0.0
2017-Jul-16 03:57N 45°26' E 012°19'0 0.0
2017-Jul-16 03:27N 45°26' E 012°19'0 0.0
2017-Jul-16 02:57N 45°26' E 012°19'0 0.0
2017-Jul-16 02:27N 45°26' E 012°19'0 0.0
2017-Jul-16 01:57N 45°26' E 012°19'0 0.0
2017-Jul-16 01:27N 45°26' E 012°19'0 0.0
2017-Jul-16 00:57N 45°26' E 012°19'0 0.0
2017-Jul-16 00:27N 45°26' E 012°19'0 0.0
2017-Jul-15 23:57N 45°26' E 012°19'0 0.0
2017-Jul-15 23:27N 45°26' E 012°19'0 0.0
2017-Jul-15 22:57N 45°26' E 012°19'0 0.0
2017-Jul-15 22:27N 45°26' E 012°19'0 0.0
2017-Jul-15 21:57N 45°26' E 012°19'0 0.0
2017-Jul-15 21:27N 45°26' E 012°19'0 0.0
2017-Jul-15 20:57N 45°26' E 012°19'0 0.0
2017-Jul-15 20:27N 45°26' E 012°19'0 0.0
2017-Jul-15 19:57N 45°26' E 012°19'0 0.0
2017-Jul-15 19:27N 45°26' E 012°19'0 0.0
2017-Jul-15 18:57N 45°26' E 012°19'0 0.0
2017-Jul-15 18:27N 45°26' E 012°19'0 0.0
2017-Jul-15 17:57N 45°26' E 012°19'0 0.0
2017-Jul-15 17:27N 45°26' E 012°19'0 0.0
2017-Jul-15 16:57N 45°26' E 012°19'0 0.0
2017-Jul-15 16:27N 45°26' E 012°19'0 0.0
2017-Jul-15 15:57N 45°26' E 012°19'0 0.0
2017-Jul-15 15:27N 45°26' E 012°19'0 0.0
2017-Jul-15 14:57N 45°26' E 012°19'0 0.0
2017-Jul-15 13:57N 45°26' E 012°19'0 0.0
2017-Jul-15 13:27N 45°26' E 012°19'0 0.0
2017-Jul-15 12:57N 45°26' E 012°19'0 0.0
2017-Jul-15 12:27N 45°26' E 012°19'0 0.0
2017-Jul-15 11:57N 45°26' E 012°19'0 0.0
2017-Jul-15 11:27N 45°26' E 012°19'0 0.0
2017-Jul-15 10:57N 45°26' E 012°19'0 0.0
2017-Jul-15 10:27N 45°26' E 012°19'0 0.0
2017-Jul-15 09:57N 45°26' E 012°19'0 0.0
2017-Jul-15 09:27N 45°26' E 012°19'0 0.0
2017-Jul-15 08:57N 45°26' E 012°19'0 0.0
2017-Jul-15 08:27N 45°26' E 012°19'0 0.0
2017-Jul-15 07:57N 45°26' E 012°19'0 0.0
2017-Jul-15 07:27N 45°26' E 012°19'0 0.0
2017-Jul-15 06:57N 45°26' E 012°19'0 0.0
2017-Jul-15 06:27N 45°26' E 012°19'0 0.0
2017-Jul-15 05:57N 45°26' E 012°19'0 0.0
2017-Jul-15 05:27N 45°26' E 012°19'0 0.0
2017-Jul-15 04:57N 45°26' E 012°19'0 0.0
2017-Jul-15 04:27N 45°26' E 012°19'0 0.0
2017-Jul-15 03:57N 45°26' E 012°19'0 0.0
2017-Jul-15 03:27N 45°26' E 012°19'0 0.0
2017-Jul-15 02:57N 45°26' E 012°19'0 0.0
2017-Jul-15 02:27N 45°26' E 012°19'0 0.0
2017-Jul-15 01:57N 45°26' E 012°19'0 0.0
2017-Jul-15 01:27N 45°26' E 012°19'0 0.0
2017-Jul-15 00:57N 45°26' E 012°19'0 0.0
2017-Jul-15 00:27N 45°26' E 012°19'0 0.0
2017-Jul-14 23:57N 45°26' E 012°19'0 0.0
2017-Jul-14 23:27N 45°26' E 012°19'0 0.0
2017-Jul-14 22:57N 45°26' E 012°19'0 0.0
2017-Jul-14 22:27N 45°26' E 012°19'0 0.0
2017-Jul-14 21:57N 45°26' E 012°19'0 0.0
2017-Jul-14 21:27N 45°26' E 012°19'0 0.0
2017-Jul-14 20:57N 45°26' E 012°19'0 0.0
2017-Jul-14 20:27N 45°26' E 012°19'0 0.0
2017-Jul-14 19:57N 45°26' E 012°19'0 0.0
2017-Jul-14 19:27N 45°26' E 012°19'0 0.0
2017-Jul-14 18:57N 45°26' E 012°19'0 0.0
2017-Jul-14 18:27N 45°26' E 012°19'0 0.0
2017-Jul-14 17:57N 45°26' E 012°19'0 0.0
2017-Jul-14 17:27N 45°26' E 012°19'0 0.0
2017-Jul-14 16:57N 45°26' E 012°19'0 0.0
2017-Jul-14 16:27N 45°26' E 012°19'0 0.0
2017-Jul-14 15:57N 45°26' E 012°19'0 0.0
2017-Jul-14 15:27N 45°26' E 012°19'0 0.0
2017-Jul-14 14:57N 45°26' E 012°19'0 0.0
2017-Jul-14 14:27N 45°26' E 012°19'0 0.0
2017-Jul-14 13:57N 45°26' E 012°19'0 0.0
2017-Jul-14 13:27N 45°26' E 012°19'0 0.0
2017-Jul-14 12:57N 45°26' E 012°19'0 0.0
2017-Jul-14 12:27N 45°26' E 012°19'0 0.0
2017-Jul-14 11:57N 45°26' E 012°19'0 0.0
2017-Jul-14 11:27N 45°26' E 012°19'0 0.0
2017-Jul-14 10:57N 45°26' E 012°19'0 0.0
2017-Jul-14 10:27N 45°26' E 012°19'0 0.0
2017-Jul-14 09:57N 45°26' E 012°19'0 0.0
2017-Jul-14 09:27N 45°26' E 012°19'0 0.0
2017-Jul-14 08:57N 45°26' E 012°19'0 0.0
2017-Jul-14 08:27N 45°26' E 012°19'0 0.0
2017-Jul-14 07:57N 45°26' E 012°19'0 0.0
2017-Jul-14 07:27N 45°26' E 012°19'0 0.0
2017-Jul-14 06:51N 45°26' E 012°19'  

Dump ship's entire track history